Terminal Aerodrome Forecast
Issued by NWS Sioux Falls, SD

Home | Current Version | Previous Version | Graphics & Text | Print | Product List | Glossary On
Versions: 1 2 3 4 5 6 7 8 9 10 11 12 13 14 15 16 17 18 19 20 21 22 23 24 25 26
000
FTUS43 KFSD 051134
TAFSUX
TAF
KSUX 051134Z 0512/0612 14008KT P6SM SCT100 BKN200 WS015/21040KT
     FM051500 17013KT P6SM FEW120 BKN250
     FM051800 18015G24KT P6SM BKN200
     FM060000 16013KT P6SM BKN200
     FM060400 15011KT P6SM BKN150 WS015/20043KT
      TEMPO 0609/0612 6SM TSRA BKN060CB=

USA.gov is the U.S. government's official web portal to all federal, state and local government web resources and services.